sensor_id;sensor_type;location;lat;lon;timestamp;P1;durP1;ratioP1;P2;durP2;ratioP2
22863;SDS011;11599;49.882;8.680;2023-02-28T00:10:05;2.63;;;1.60;;
22863;SDS011;11599;49.882;8.680;2023-02-28T00:20:27;3.47;;;1.70;;
22863;SDS011;11599;49.882;8.680;2023-02-28T00:30:51;3.77;;;1.53;;
22863;SDS011;11599;49.882;8.680;2023-02-28T00:41:12;3.53;;;1.80;;
22863;SDS011;11599;49.882;8.680;2023-02-28T00:51:35;5.33;;;1.87;;
22863;SDS011;11599;49.882;8.680;2023-02-28T01:01:57;3.33;;;1.83;;
22863;SDS011;11599;49.882;8.680;2023-02-28T01:12:20;3.40;;;1.80;;
22863;SDS011;11599;49.882;8.680;2023-02-28T01:22:41;2.63;;;1.50;;
22863;SDS011;11599;49.882;8.680;2023-02-28T01:33:04;3.07;;;1.53;;
22863;SDS011;11599;49.882;8.680;2023-02-28T01:43:26;5.17;;;1.90;;
22863;SDS011;11599;49.882;8.680;2023-02-28T01:53:51;3.50;;;1.83;;
22863;SDS011;11599;49.882;8.680;2023-02-28T02:04:13;4.63;;;2.00;;
22863;SDS011;11599;49.882;8.680;2023-02-28T02:14:45;4.03;;;1.87;;
22863;SDS011;11599;49.882;8.680;2023-02-28T02:25:16;6.90;;;2.80;;
22863;SDS011;11599;49.882;8.680;2023-02-28T02:35:42;6.70;;;3.20;;
22863;SDS011;11599;49.882;8.680;2023-02-28T02:46:07;7.47;;;2.77;;
22863;SDS011;11599;49.882;8.680;2023-02-28T02:56:33;4.80;;;2.50;;
22863;SDS011;11599;49.882;8.680;2023-02-28T03:06:56;5.57;;;2.60;;
22863;SDS011;11599;49.882;8.680;2023-02-28T03:17:23;5.23;;;2.77;;
22863;SDS011;11599;49.882;8.680;2023-02-28T03:27:49;3.67;;;2.27;;
22863;SDS011;11599;49.882;8.680;2023-02-28T03:38:15;5.60;;;2.30;;
22863;SDS011;11599;49.882;8.680;2023-02-28T03:48:39;5.40;;;2.43;;
22863;SDS011;11599;49.882;8.680;2023-02-28T03:59:04;5.73;;;2.63;;
22863;SDS011;11599;49.882;8.680;2023-02-28T04:09:27;6.50;;;2.97;;
22863;SDS011;11599;49.882;8.680;2023-02-28T04:19:50;6.40;;;3.10;;
22863;SDS011;11599;49.882;8.680;2023-02-28T04:30:12;4.53;;;2.47;;
22863;SDS011;11599;49.882;8.680;2023-02-28T04:40:35;10.57;;;3.53;;
22863;SDS011;11599;49.882;8.680;2023-02-28T04:50:59;4.03;;;2.67;;
22863;SDS011;11599;49.882;8.680;2023-02-28T05:01:23;13.37;;;3.00;;
22863;SDS011;11599;49.882;8.680;2023-02-28T05:11:45;4.53;;;2.60;;
22863;SDS011;11599;49.882;8.680;2023-02-28T05:22:13;6.63;;;3.00;;
22863;SDS011;11599;49.882;8.680;2023-02-28T05:32:34;7.07;;;3.10;;
22863;SDS011;11599;49.882;8.680;2023-02-28T05:42:57;6.83;;;3.20;;
22863;SDS011;11599;49.882;8.680;2023-02-28T05:53:19;8.73;;;3.57;;
22863;SDS011;11599;49.882;8.680;2023-02-28T06:03:42;6.80;;;3.43;;
22863;SDS011;11599;49.882;8.680;2023-02-28T06:14:03;4.43;;;2.57;;
22863;SDS011;11599;49.882;8.680;2023-02-28T06:24:26;7.17;;;3.03;;
22863;SDS011;11599;49.882;8.680;2023-02-28T06:34:49;5.47;;;3.10;;
22863;SDS011;11599;49.882;8.680;2023-02-28T06:45:12;6.67;;;3.00;;
22863;SDS011;11599;49.882;8.680;2023-02-28T06:55:33;6.43;;;3.00;;
22863;SDS011;11599;49.882;8.680;2023-02-28T07:05:58;13.43;;;5.50;;
22863;SDS011;11599;49.882;8.680;2023-02-28T07:16:19;8.30;;;2.90;;
22863;SDS011;11599;49.882;8.680;2023-02-28T07:26:42;8.27;;;3.97;;
22863;SDS011;11599;49.882;8.680;2023-02-28T07:37:04;5.87;;;3.20;;
22863;SDS011;11599;49.882;8.680;2023-02-28T07:47:26;9.67;;;3.50;;
22863;SDS011;11599;49.882;8.680;2023-02-28T07:57:49;12.10;;;3.83;;
22863;SDS011;11599;49.882;8.680;2023-02-28T08:08:12;5.83;;;2.57;;
22863;SDS011;11599;49.882;8.680;2023-02-28T08:18:33;5.27;;;2.60;;
22863;SDS011;11599;49.882;8.680;2023-02-28T08:28:56;7.10;;;2.43;;
22863;SDS011;11599;49.882;8.680;2023-02-28T08:39:18;5.07;;;2.57;;
22863;SDS011;11599;49.882;8.680;2023-02-28T08:49:41;6.87;;;3.00;;
22863;SDS011;11599;49.882;8.680;2023-02-28T09:00:03;7.73;;;2.80;;
22863;SDS011;11599;49.882;8.680;2023-02-28T09:10:26;7.53;;;3.50;;
22863;SDS011;11599;49.882;8.680;2023-02-28T09:20:47;6.70;;;3.30;;
22863;SDS011;11599;49.882;8.680;2023-02-28T09:31:13;6.03;;;3.50;;
22863;SDS011;11599;49.882;8.680;2023-02-28T09:41:36;6.47;;;3.80;;
22863;SDS011;11599;49.882;8.680;2023-02-28T09:52:02;6.70;;;4.00;;
22863;SDS011;11599;49.882;8.680;2023-02-28T10:02:37;6.73;;;4.20;;
22863;SDS011;11599;49.882;8.680;2023-02-28T10:13:04;6.73;;;4.10;;
22863;SDS011;11599;49.882;8.680;2023-02-28T10:23:27;6.07;;;3.45;;
22863;SDS011;11599;49.882;8.680;2023-02-28T10:33:50;5.90;;;3.88;;
22863;SDS011;11599;49.882;8.680;2023-02-28T10:44:13;7.73;;;4.00;;
22863;SDS011;11599;49.882;8.680;2023-02-28T10:54:36;10.43;;;3.90;;
22863;SDS011;11599;49.882;8.680;2023-02-28T11:04:58;5.10;;;3.30;;
22863;SDS011;11599;49.882;8.680;2023-02-28T11:15:23;7.27;;;3.43;;
22863;SDS011;11599;49.882;8.680;2023-02-28T11:25:47;9.73;;;3.87;;
22863;SDS011;11599;49.882;8.680;2023-02-28T11:36:11;5.27;;;3.80;;
22863;SDS011;11599;49.882;8.680;2023-02-28T11:46:35;6.10;;;4.03;;
22863;SDS011;11599;49.882;8.680;2023-02-28T11:57:17;5.25;;;3.35;;
22863;SDS011;11599;49.882;8.680;2023-02-28T12:07:42;5.97;;;3.88;;
22863;SDS011;11599;49.882;8.680;2023-02-28T12:18:15;4.90;;;3.30;;
22863;SDS011;11599;49.882;8.680;2023-02-28T12:28:43;7.80;;;4.18;;
22863;SDS011;11599;49.882;8.680;2023-02-28T12:39:08;6.25;;;3.85;;
22863;SDS011;11599;49.882;8.680;2023-02-28T12:49:33;6.63;;;4.47;;
22863;SDS011;11599;49.882;8.680;2023-02-28T12:59:57;6.72;;;4.18;;
22863;SDS011;11599;49.882;8.680;2023-02-28T13:10:20;6.47;;;4.03;;
22863;SDS011;11599;49.882;8.680;2023-02-28T13:20:46;7.63;;;4.97;;
22863;SDS011;11599;49.882;8.680;2023-02-28T13:31:08;5.93;;;4.10;;
22863;SDS011;11599;49.882;8.680;2023-02-28T13:41:41;9.47;;;5.07;;
22863;SDS011;11599;49.882;8.680;2023-02-28T13:52:06;5.60;;;4.00;;
22863;SDS011;11599;49.882;8.680;2023-02-28T14:02:43;6.07;;;4.30;;
22863;SDS011;11599;49.882;8.680;2023-02-28T14:13:11;7.60;;;3.90;;
22863;SDS011;11599;49.882;8.680;2023-02-28T14:23:42;6.88;;;4.45;;
22863;SDS011;11599;49.882;8.680;2023-02-28T14:34:22;7.57;;;4.50;;
22863;SDS011;11599;49.882;8.680;2023-02-28T14:44:54;8.13;;;4.40;;
22863;SDS011;11599;49.882;8.680;2023-02-28T14:55:17;6.93;;;3.97;;
22863;SDS011;11599;49.882;8.680;2023-02-28T15:05:40;5.83;;;3.97;;
22863;SDS011;11599;49.882;8.680;2023-02-28T15:16:02;7.77;;;3.93;;
22863;SDS011;11599;49.882;8.680;2023-02-28T15:26:26;12.37;;;4.43;;
22863;SDS011;11599;49.882;8.680;2023-02-28T15:36:48;9.37;;;4.07;;
22863;SDS011;11599;49.882;8.680;2023-02-28T15:57:49;6.97;;;4.10;;
22863;SDS011;11599;49.882;8.680;2023-02-28T16:08:13;8.07;;;4.40;;
22863;SDS011;11599;49.882;8.680;2023-02-28T16:18:36;8.20;;;4.37;;
22863;SDS011;11599;49.882;8.680;2023-02-28T16:29:01;7.70;;;4.47;;
22863;SDS011;11599;49.882;8.680;2023-02-28T16:39:26;9.57;;;4.23;;
22863;SDS011;11599;49.882;8.680;2023-02-28T16:49:48;9.20;;;4.47;;
22863;SDS011;11599;49.882;8.680;2023-02-28T17:10:31;5.63;;;3.90;;
22863;SDS011;11599;49.882;8.680;2023-02-28T17:20:53;8.40;;;4.40;;
22863;SDS011;11599;49.882;8.680;2023-02-28T17:31:16;11.53;;;4.90;;
22863;SDS011;11599;49.882;8.680;2023-02-28T17:41:38;9.17;;;4.67;;
22863;SDS011;11599;49.882;8.680;2023-02-28T17:52:05;7.37;;;4.33;;
22863;SDS011;11599;49.882;8.680;2023-02-28T18:02:27;10.40;;;4.67;;
22863;SDS011;11599;49.882;8.680;2023-02-28T18:12:50;10.97;;;5.57;;
22863;SDS011;11599;49.882;8.680;2023-02-28T18:23:12;10.03;;;5.33;;
22863;SDS011;11599;49.882;8.680;2023-02-28T18:33:35;10.83;;;5.33;;
22863;SDS011;11599;49.882;8.680;2023-02-28T18:43:56;11.27;;;5.27;;
22863;SDS011;11599;49.882;8.680;2023-02-28T18:54:19;12.43;;;5.67;;
22863;SDS011;11599;49.882;8.680;2023-02-28T19:04:40;15.17;;;7.37;;
22863;SDS011;11599;49.882;8.680;2023-02-28T19:15:04;11.27;;;5.40;;
22863;SDS011;11599;49.882;8.680;2023-02-28T19:25:27;11.50;;;5.50;;
22863;SDS011;11599;49.882;8.680;2023-02-28T19:35:50;14.20;;;6.00;;
22863;SDS011;11599;49.882;8.680;2023-02-28T19:46:12;11.37;;;5.37;;
22863;SDS011;11599;49.882;8.680;2023-02-28T19:56:35;15.93;;;5.63;;
22863;SDS011;11599;49.882;8.680;2023-02-28T20:06:56;12.37;;;6.30;;
22863;SDS011;11599;49.882;8.680;2023-02-28T20:17:19;16.60;;;6.77;;
22863;SDS011;11599;49.882;8.680;2023-02-28T20:27:41;13.80;;;6.40;;
22863;SDS011;11599;49.882;8.680;2023-02-28T20:38:04;16.63;;;6.43;;
22863;SDS011;11599;49.882;8.680;2023-02-28T20:48:27;14.53;;;7.43;;
22863;SDS011;11599;49.882;8.680;2023-02-28T21:09:14;11.63;;;5.87;;
22863;SDS011;11599;49.882;8.680;2023-02-28T21:19:38;17.00;;;7.07;;
22863;SDS011;11599;49.882;8.680;2023-02-28T21:40:48;14.43;;;6.47;;
22863;SDS011;11599;49.882;8.680;2023-02-28T21:51:15;15.47;;;6.50;;
22863;SDS011;11599;49.882;8.680;2023-02-28T22:02:04;14.57;;;7.00;;
22863;SDS011;11599;49.882;8.680;2023-02-28T22:12:32;17.47;;;7.30;;
22863;SDS011;11599;49.882;8.680;2023-02-28T22:23:24;15.20;;;7.10;;
22863;SDS011;11599;49.882;8.680;2023-02-28T22:33:52;12.93;;;6.50;;
22863;SDS011;11599;49.882;8.680;2023-02-28T22:56:16;14.43;;;6.70;;
22863;SDS011;11599;49.882;8.680;2023-02-28T23:06:41;15.53;;;6.73;;
22863;SDS011;11599;49.882;8.680;2023-02-28T23:17:08;19.63;;;7.13;;
22863;SDS011;11599;49.882;8.680;2023-02-28T23:28:13;14.67;;;6.80;;
